Time;durP1;ratioP1;P1;durP2;ratioP2;P2;SDS_P1;SDS_P2;PMS_P1;PMS_P2;Temp;Humidity;BMP_temperature;BMP_pressure;BME280_temperature;BME280_humidity;BME280_pressure;Samples;Min_cycle;Max_cycle;Signal;HPM_P1;HPM_P2
2022/10/12 00:01:58;;;;;;;8.07;2.85;;;5.20;99.90;;;;;;4990724;28;20034;-79
2022/10/12 00:04:24;;;;;;;4.40;2.67;;;5.10;99.90;;;;;;5007473;28;20149;-79
2022/10/12 00:06:50;;;;;;;5.68;2.45;;;5.20;99.90;;;;;;5008570;28;20500;-78
2022/10/12 00:09:16;;;;;;;8.02;2.90;;;5.10;99.90;;;;;;5007880;28;20465;-82
2022/10/12 00:11:41;;;;;;;5.95;2.70;;;5.10;99.90;;;;;;5009734;28;20046;-80
2022/10/12 00:14:07;;;;;;;4.85;2.38;;;5.20;99.90;;;;;;5005320;28;20030;-84
2022/10/12 00:16:33;;;;;;;5.05;2.45;;;5.20;99.90;;;;;;5007151;28;20121;-82
2022/10/12 00:18:59;;;;;;;4.72;1.73;;;5.10;99.90;;;;;;5006736;28;20026;-82
2022/10/12 00:21:27;;;;;;;5.25;2.20;;;5.20;99.90;;;;;;5006664;28;20045;-88
2022/10/12 00:23:56;;;;;;;5.10;2.15;;;5.10;99.90;;;;;;5006866;28;20048;-79
2022/10/12 00:26:23;;;;;;;4.88;1.63;;;5.20;99.90;;;;;;5007519;28;20026;-89
2022/10/12 00:28:55;;;;;;;4.72;1.65;;;5.10;99.90;;;;;;5006821;28;20041;-84
2022/10/12 00:31:20;;;;;;;5.05;2.25;;;5.20;99.90;;;;;;5006266;28;20113;-80
2022/10/12 00:33:47;;;;;;;4.38;1.60;;;5.20;99.90;;;;;;5006465;28;20276;-87
2022/10/12 00:36:17;;;;;;;3.67;1.80;;;5.10;99.90;;;;;;5006904;28;20033;-85
2022/10/12 00:38:43;;;;;;;4.20;1.23;;;5.10;99.90;;;;;;5007956;28;20026;-78
2022/10/12 00:41:10;;;;;;;3.83;1.42;;;5.20;99.90;;;;;;5007976;28;20160;-83
2022/10/12 00:43:38;;;;;;;4.22;1.30;;;5.20;99.90;;;;;;5022303;28;20592;-78
2022/10/12 00:46:40;;;;;;;4.07;1.58;;;5.10;99.90;;;;;;5004681;28;20474;-83
2022/10/12 00:49:18;;;;;;;4.22;1.25;;;5.10;99.90;;;;;;5009728;28;20040;-80
2022/10/12 00:51:54;;;;;;;5.72;1.30;;;5.00;99.90;;;;;;5011448;28;20091;-80
2022/10/12 00:54:26;;;;;;;5.38;1.42;;;5.00;99.90;;;;;;5010930;28;20041;-80
2022/10/12 00:56:54;;;;;;;3.25;1.13;;;5.00;99.90;;;;;;5026526;28;20481;-79
2022/10/12 00:59:29;;;;;;;3.33;1.38;;;5.00;99.90;;;;;;5009860;28;20056;-79
2022/10/12 01:01:55;;;;;;;3.80;1.10;;;5.00;99.90;;;;;;5010262;28;20032;-83
2022/10/12 01:04:22;;;;;;;2.53;1.17;;;5.10;99.90;;;;;;4993451;28;20034;-80
2022/10/12 01:06:48;;;;;;;3.80;1.25;;;5.00;99.90;;;;;;4993881;28;20513;-84
2022/10/12 01:09:14;;;;;;;3.85;1.50;;;4.90;99.90;;;;;;5025101;28;20030;-83
2022/10/12 01:11:40;;;;;;;4.38;1.52;;;4.90;99.90;;;;;;5009376;28;20057;-79
2022/10/12 01:14:06;;;;;;;4.68;1.00;;;5.00;99.90;;;;;;5010992;28;20026;-81
2022/10/12 01:17:00;;;;;;;3.53;1.75;;;5.00;99.90;;;;;;5011177;28;20495;-81
2022/10/12 01:19:47;;;;;;;4.30;1.48;;;5.00;99.90;;;;;;4991717;28;20042;-78
2022/10/12 01:22:19;;;;;;;3.70;1.23;;;4.90;99.90;;;;;;5008828;28;20037;-83
2022/10/12 01:24:51;;;;;;;4.43;1.60;;;4.80;99.90;;;;;;5010033;28;20044;-78
2022/10/12 01:27:29;;;;;;;4.15;1.85;;;5.00;99.90;;;;;;5026307;28;20022;-81
2022/10/12 01:30:08;;;;;;;6.47;1.42;;;4.90;99.90;;;;;;5025377;28;20034;-81
2022/10/12 01:33:03;;;;;;;3.00;1.58;;;4.80;99.90;;;;;;5010505;28;20109;-81
2022/10/12 01:35:52;;;;;;;4.72;1.30;;;4.90;99.90;;;;;;5025817;28;20021;-80
2022/10/12 01:38:58;;;;;;;5.77;1.40;;;5.00;99.90;;;;;;5010217;28;20037;-86
2022/10/12 01:41:26;;;;;;;3.97;1.48;;;5.00;99.90;;;;;;5010105;28;20084;-80
2022/10/12 01:43:51;;;;;;;3.30;1.23;;;4.90;99.90;;;;;;5026102;28;20042;-79
2022/10/12 01:46:17;;;;;;;3.55;1.15;;;4.90;99.90;;;;;;5009612;28;20029;-80
2022/10/12 01:48:45;;;;;;;3.85;1.25;;;4.80;99.90;;;;;;5009562;28;20397;-83
2022/10/12 01:51:15;;;;;;;6.00;1.40;;;4.80;99.90;;;;;;5010401;28;20037;-87
2022/10/12 01:53:52;;;;;;;5.50;1.38;;;4.90;99.90;;;;;;5010697;28;20029;-88
2022/10/12 01:56:37;;;;;;;3.30;1.67;;;5.00;99.90;;;;;;4990228;28;20494;-82
2022/10/12 01:59:19;;;;;;;3.03;1.30;;;5.00;99.90;;;;;;5009711;28;20029;-82
2022/10/12 02:02:05;;;;;;;3.40;1.02;;;4.90;99.90;;;;;;5010311;28;20092;-83
2022/10/12 02:04:37;;;;;;;3.78;1.40;;;4.80;99.90;;;;;;5007408;28;20084;-83
2022/10/12 02:07:23;;;;;;;3.63;1.05;;;4.90;99.90;;;;;;4993212;28;20029;-80
2022/10/12 02:09:53;;;;;;;4.00;1.38;;;4.80;99.90;;;;;;5009121;28;20096;-78
2022/10/12 02:12:22;;;;;;;4.20;1.70;;;4.90;99.90;;;;;;5009833;28;20049;-80
2022/10/12 02:14:55;;;;;;;4.25;1.38;;;4.90;99.90;;;;;;4990194;28;20022;-78
2022/10/12 02:17:22;;;;;;;4.13;1.20;;;4.90;99.90;;;;;;5008731;28;20034;-84
2022/10/12 02:19:54;;;;;;;4.50;1.38;;;4.90;99.90;;;;;;5010306;28;20017;-81
2022/10/12 02:22:27;;;;;;;5.10;1.35;;;4.80;99.90;;;;;;5009922;28;20129;-85
2022/10/12 02:24:56;;;;;;;3.92;1.10;;;4.80;99.90;;;;;;5024993;28;20042;-80
2022/10/12 02:27:24;;;;;;;2.80;1.40;;;4.90;99.90;;;;;;5006943;28;20087;-79
2022/10/12 02:29:50;;;;;;;5.18;1.45;;;4.80;99.90;;;;;;5009886;28;20022;-81
2022/10/12 02:32:21;;;;;;;3.72;1.40;;;4.80;99.90;;;;;;4992422;28;20037;-85
2022/10/12 02:35:01;;;;;;;3.97;1.10;;;4.80;99.90;;;;;;5008140;28;20087;-84
2022/10/12 02:37:50;;;;;;;4.13;0.90;;;4.70;99.90;;;;;;5008493;28;20026;-83
2022/10/12 02:40:22;;;;;;;4.88;1.23;;;4.70;99.90;;;;;;5014759;28;20405;-84
2022/10/12 02:42:53;;;;;;;3.97;0.90;;;4.70;99.90;;;;;;4992664;28;20034;-83
2022/10/12 02:45:21;;;;;;;5.65;1.13;;;4.60;99.90;;;;;;5006624;28;20414;-79
2022/10/12 02:47:51;;;;;;;3.65;0.90;;;4.50;99.90;;;;;;4991470;28;20470;-79
2022/10/12 02:50:20;;;;;;;3.47;1.02;;;4.50;99.90;;;;;;4992025;28;20391;-80
2022/10/12 02:52:48;;;;;;;3.10;1.17;;;4.40;99.90;;;;;;5009475;28;20490;-79
2022/10/12 02:55:14;;;;;;;4.38;0.90;;;4.40;99.90;;;;;;4989727;28;20033;-79
2022/10/12 02:57:40;;;;;;;4.60;1.13;;;4.40;99.90;;;;;;5024618;28;20402;-79
2022/10/12 03:00:07;;;;;;;3.17;1.02;;;4.30;99.90;;;;;;5007598;28;20049;-80
2022/10/12 03:02:32;;;;;;;4.25;1.17;;;4.30;99.90;;;;;;5008543;28;20026;-85
2022/10/12 03:04:58;;;;;;;4.00;1.50;;;4.30;99.90;;;;;;5010054;28;20128;-79
2022/10/12 03:07:23;;;;;;;4.75;1.00;;;4.40;99.90;;;;;;5007895;28;20033;-84
2022/10/12 03:09:49;;;;;;;2.92;0.80;;;4.40;99.90;;;;;;4991487;28;20281;-79
2022/10/12 03:12:15;;;;;;;2.45;1.00;;;4.30;99.90;;;;;;5007038;28;20042;-81
2022/10/12 03:14:40;;;;;;;3.15;0.98;;;4.30;99.90;;;;;;5025040;28;20552;-81
2022/10/12 03:17:06;;;;;;;3.53;1.30;;;4.20;99.90;;;;;;5008679;28;20609;-87
2022/10/12 03:19:32;;;;;;;2.15;0.70;;;4.30;99.90;;;;;;5006795;28;20505;-79
2022/10/12 03:21:57;;;;;;;3.90;0.80;;;4.30;99.90;;;;;;5008476;28;20033;-79
2022/10/12 03:24:23;;;;;;;2.35;0.90;;;4.30;99.90;;;;;;5008949;28;20400;-86
2022/10/12 03:26:49;;;;;;;6.68;1.00;;;4.10;99.90;;;;;;5008070;28;20022;-79
2022/10/12 03:29:14;;;;;;;5.80;1.00;;;4.30;99.90;;;;;;5008014;28;20064;-80
2022/10/12 03:31:40;;;;;;;3.80;0.90;;;4.30;99.90;;;;;;5007551;28;20284;-86
2022/10/12 03:34:06;;;;;;;2.65;0.80;;;4.30;99.90;;;;;;4991840;28;20470;-82
2022/10/12 03:36:31;;;;;;;3.75;1.10;;;4.30;99.90;;;;;;4991538;28;20034;-83
2022/10/12 03:38:57;;;;;;;2.70;0.95;;;4.20;99.90;;;;;;5008122;28;20034;-80
2022/10/12 03:41:23;;;;;;;2.65;0.70;;;4.20;99.90;;;;;;5023358;28;20472;-82
2022/10/12 03:43:48;;;;;;;3.38;0.90;;;4.20;99.90;;;;;;5008617;28;20387;-86
2022/10/12 03:46:14;;;;;;;4.70;0.80;;;4.30;99.90;;;;;;5007476;28;20026;-86
2022/10/12 03:48:40;;;;;;;3.42;0.88;;;4.10;99.90;;;;;;5009159;28;20421;-86
2022/10/12 03:51:05;;;;;;;4.85;0.90;;;4.00;99.90;;;;;;5008891;28;20576;-80
2022/10/12 03:53:31;;;;;;;2.67;1.05;;;4.00;99.90;;;;;;5007112;28;20029;-82
2022/10/12 03:55:57;;;;;;;4.03;1.08;;;4.00;99.90;;;;;;4991027;28;20025;-79
2022/10/12 03:58:23;;;;;;;4.05;0.90;;;4.00;99.90;;;;;;5006987;28;20470;-87
2022/10/12 04:00:55;;;;;;;3.08;0.80;;;3.90;99.90;;;;;;5008661;28;20060;-81
2022/10/12 04:03:21;;;;;;;3.03;1.10;;;4.00;99.90;;;;;;5006427;28;20046;-84
2022/10/12 04:05:55;;;;;;;2.75;1.00;;;3.90;99.90;;;;;;5007683;28;20036;-85
2022/10/12 04:08:21;;;;;;;3.85;0.93;;;3.90;99.90;;;;;;4990618;28;20482;-86
2022/10/12 04:10:49;;;;;;;3.42;1.00;;;3.80;99.90;;;;;;4995334;28;20116;-79
2022/10/12 04:13:16;;;;;;;4.05;1.05;;;3.70;99.90;;;;;;5003239;28;20111;-82
2022/10/12 04:15:41;;;;;;;3.03;0.75;;;3.70;99.90;;;;;;5008120;28;20029;-85
2022/10/12 04:18:07;;;;;;;5.20;0.73;;;3.90;99.90;;;;;;5006943;28;20084;-81
2022/10/12 04:20:33;;;;;;;3.10;0.85;;;3.80;99.90;;;;;;5007073;28;20045;-87
2022/10/12 04:22:58;;;;;;;4.28;0.93;;;3.70;99.90;;;;;;4990314;28;20084;-82
2022/10/12 04:25:24;;;;;;;3.53;0.88;;;3.60;99.90;;;;;;4990440;28;20042;-86
2022/10/12 04:27:50;;;;;;;2.40;0.93;;;3.60;99.90;;;;;;5007147;28;20041;-78
2022/10/12 04:30:16;;;;;;;3.67;1.42;;;3.70;99.90;;;;;;5006762;28;20382;-88
2022/10/12 04:32:41;;;;;;;2.55;0.88;;;3.70;99.90;;;;;;5007990;28;20466;-81
2022/10/12 04:35:07;;;;;;;2.85;0.80;;;3.60;99.90;;;;;;5007807;28;20029;-88
2022/10/12 04:37:33;;;;;;;2.50;1.00;;;3.50;99.90;;;;;;5007556;28;20121;-80
2022/10/12 04:39:59;;;;;;;4.55;1.13;;;3.50;99.90;;;;;;5006576;28;20112;-87
2022/10/12 04:42:25;;;;;;;5.47;0.95;;;3.50;99.90;;;;;;4990563;28;20100;-88
2022/10/12 04:44:52;;;;;;;2.35;0.88;;;3.40;99.90;;;;;;5007774;28;20114;-82
2022/10/12 04:47:18;;;;;;;2.28;0.77;;;3.30;99.90;;;;;;5007138;28;20175;-87
2022/10/12 04:49:43;;;;;;;4.22;1.15;;;3.40;99.90;;;;;;4989895;28;20026;-88
2022/10/12 04:52:09;;;;;;;2.95;0.90;;;3.50;99.90;;;;;;5006985;28;20033;-83
2022/10/12 04:54:35;;;;;;;3.80;1.10;;;3.50;99.90;;;;;;5007081;28;20030;-83
2022/10/12 04:57:01;;;;;;;6.22;1.20;;;3.40;99.90;;;;;;5006465;28;20026;-82
2022/10/12 04:59:27;;;;;;;2.70;1.13;;;3.30;99.90;;;;;;5004526;28;20032;-83
2022/10/12 05:01:53;;;;;;;4.10;1.10;;;3.30;99.90;;;;;;4990680;28;20401;-85
2022/10/12 05:04:20;;;;;;;2.30;0.90;;;3.30;99.90;;;;;;5020839;28;20430;-79
2022/10/12 05:06:46;;;;;;;5.07;1.40;;;3.30;99.90;;;;;;5005952;28;20463;-81
2022/10/12 05:09:12;;;;;;;4.63;0.90;;;3.10;99.90;;;;;;5006452;28;20032;-85
2022/10/12 05:11:39;;;;;;;4.55;1.30;;;3.20;99.90;;;;;;5008322;28;20045;-84
2022/10/12 05:14:05;;;;;;;4.82;1.27;;;3.30;99.90;;;;;;5006775;28;20069;-87
2022/10/12 05:16:31;;;;;;;4.10;0.80;;;3.00;99.90;;;;;;5006478;28;20029;-85
2022/10/12 05:18:57;;;;;;;2.05;0.70;;;3.20;99.90;;;;;;4990749;28;20397;-88
2022/10/12 05:21:23;;;;;;;4.10;0.98;;;3.20;99.90;;;;;;5005498;28;20026;-86
2022/10/12 05:23:51;;;;;;;4.85;1.00;;;3.20;99.90;;;;;;5003885;28;20042;-87
2022/10/12 05:26:17;;;;;;;4.68;1.00;;;3.10;99.90;;;;;;5003191;28;20033;-78
2022/10/12 05:28:43;;;;;;;4.57;1.08;;;3.20;99.90;;;;;;4992747;28;20041;-84
2022/10/12 05:31:08;;;;;;;4.60;1.08;;;3.10;99.90;;;;;;5001860;28;20022;-87
2022/10/12 05:33:34;;;;;;;2.72;1.02;;;3.00;99.90;;;;;;5001071;28;20026;-84
2022/10/12 05:36:00;;;;;;;3.25;1.02;;;2.80;99.90;;;;;;5011278;28;20092;-82
2022/10/12 05:38:25;;;;;;;3.00;0.95;;;2.90;99.90;;;;;;5008076;28;20096;-79
2022/10/12 05:40:51;;;;;;;2.05;0.70;;;2.90;99.90;;;;;;5005824;28;20030;-77
2022/10/12 05:43:17;;;;;;;2.50;0.85;;;2.90;99.90;;;;;;5003837;28;20037;-81
2022/10/12 05:45:43;;;;;;;2.65;0.70;;;2.90;99.90;;;;;;5005401;28;20044;-81
2022/10/12 05:48:08;;;;;;;3.63;1.00;;;2.90;99.90;;;;;;5009149;28;20457;-77
2022/10/12 05:50:34;;;;;;;3.28;0.73;;;3.00;99.90;;;;;;5018441;28;20041;-88
2022/10/12 05:53:00;;;;;;;4.03;0.80;;;3.00;99.90;;;;;;5008749;28;20045;-78
2022/10/12 05:55:25;;;;;;;3.42;1.27;;;3.00;99.90;;;;;;5002820;28;20049;-82
2022/10/12 05:57:51;;;;;;;4.22;1.23;;;2.90;99.90;;;;;;4988597;28;20155;-88
2022/10/12 06:00:17;;;;;;;5.00;1.15;;;3.00;99.90;;;;;;5006351;28;20425;-79
2022/10/12 06:02:42;;;;;;;3.38;1.48;;;3.00;99.90;;;;;;4986301;28;20288;-86
2022/10/12 06:05:08;;;;;;;3.10;1.38;;;3.10;99.90;;;;;;5003760;28;20137;-77
2022/10/12 06:07:34;;;;;;;3.83;1.25;;;3.00;99.90;;;;;;5003324;28;20029;-87
2022/10/12 06:09:59;;;;;;;2.92;1.20;;;3.10;99.90;;;;;;5003823;28;20465;-82
2022/10/12 06:12:25;;;;;;;3.90;1.42;;;3.20;99.90;;;;;;4984911;28;20518;-83
2022/10/12 06:14:51;;;;;;;3.13;1.30;;;3.10;99.90;;;;;;5008356;28;20129;-89
2022/10/12 06:17:17;;;;;;;2.83;1.33;;;3.10;99.90;;;;;;5017531;28;20116;-82
2022/10/12 06:19:42;;;;;;;4.70;1.02;;;3.20;99.90;;;;;;5006283;28;20038;-84
2022/10/12 06:22:08;;;;;;;4.03;1.00;;;3.20;99.90;;;;;;5001295;28;20176;-82
2022/10/12 06:24:34;;;;;;;3.80;1.13;;;3.30;99.90;;;;;;5001572;28;20180;-78
2022/10/12 06:26:59;;;;;;;3.10;1.00;;;3.30;99.90;;;;;;5003128;28;20026;-83
2022/10/12 06:29:25;;;;;;;4.78;1.02;;;3.40;99.90;;;;;;5003637;28;20037;-87
2022/10/12 06:31:51;;;;;;;2.00;0.80;;;3.50;99.90;;;;;;5003998;28;20458;-85
2022/10/12 06:34:17;;;;;;;3.38;0.90;;;3.60;99.90;;;;;;5005137;28;20037;-86
2022/10/12 06:36:43;;;;;;;3.53;0.90;;;3.60;99.90;;;;;;4984583;28;20215;-86
2022/10/12 06:39:09;;;;;;;2.92;0.90;;;3.80;99.90;;;;;;5016876;28;20428;-87
2022/10/12 06:41:35;;;;;;;2.30;0.70;;;4.00;99.90;;;;;;5021858;28;20459;-88
2022/10/12 06:44:05;;;;;;;1.65;0.70;;;4.00;99.90;;;;;;4992536;28;20573;-86
2022/10/12 06:46:31;;;;;;;2.50;0.77;;;4.00;99.90;;;;;;4994101;28;20035;-78
2022/10/12 06:48:57;;;;;;;1.92;0.77;;;4.00;99.90;;;;;;4999300;28;20488;-87
2022/10/12 06:51:22;;;;;;;3.10;0.93;;;4.10;99.90;;;;;;5008269;28;20056;-81
2022/10/12 06:53:48;;;;;;;4.13;0.98;;;4.10;99.90;;;;;;4999479;28;20145;-88
2022/10/12 06:56:14;;;;;;;5.28;1.70;;;4.20;99.90;;;;;;4999963;28;20029;-82
2022/10/12 06:58:39;;;;;;;3.30;1.58;;;4.30;99.90;;;;;;4999814;28;20025;-81
2022/10/12 07:01:07;;;;;;;4.88;1.42;;;4.50;99.90;;;;;;5016502;28;20052;-83
2022/10/12 07:03:33;;;;;;;5.13;1.42;;;4.60;99.90;;;;;;4997565;28;20053;-83
2022/10/12 07:06:13;;;;;;;6.20;2.10;;;4.70;99.90;;;;;;5009498;28;20038;-83
2022/10/12 07:08:40;;;;;;;3.70;1.42;;;4.80;99.90;;;;;;4986852;28;20727;-84
2022/10/12 07:11:08;;;;;;;4.97;1.83;;;4.70;99.90;;;;;;5017789;28;20025;-84
2022/10/12 07:13:34;;;;;;;3.22;1.48;;;4.70;99.90;;;;;;5018335;28;20057;-85
2022/10/12 07:16:00;;;;;;;3.25;1.45;;;4.90;99.90;;;;;;4998255;28;20848;-78
2022/10/12 07:18:26;;;;;;;4.20;1.77;;;5.00;99.90;;;;;;5033318;28;20167;-82
2022/10/12 07:20:55;;;;;;;4.07;1.48;;;5.10;99.90;;;;;;4992172;28;20092;-80
2022/10/12 07:23:21;;;;;;;4.88;1.70;;;5.10;99.90;;;;;;4997543;28;20063;-79
2022/10/12 07:25:51;;;;;;;3.70;1.73;;;5.10;99.90;;;;;;4999081;28;20375;-77
2022/10/12 07:28:17;;;;;;;3.85;1.70;;;5.20;99.90;;;;;;4991424;28;20056;-78
2022/10/12 07:30:43;;;;;;;3.97;2.13;;;5.30;99.90;;;;;;4991479;28;20045;-86
2022/10/12 07:33:08;;;;;;;4.65;1.92;;;5.30;99.90;;;;;;4996550;28;20028;-90
2022/10/12 07:35:34;;;;;;;4.30;1.52;;;5.40;99.90;;;;;;4983172;28;20029;-84
2022/10/12 07:37:59;;;;;;;5.63;1.90;;;5.50;99.90;;;;;;5000834;28;20148;-78
2022/10/12 07:40:25;;;;;;;5.97;1.63;;;5.60;99.90;;;;;;5007853;28;20566;-79
2022/10/12 07:42:51;;;;;;;6.50;2.00;;;5.80;99.90;;;;;;4989560;28;20052;-82
2022/10/12 07:45:17;;;;;;;4.72;1.40;;;5.80;99.90;;;;;;5000049;28;20882;-89
2022/10/12 07:47:43;;;;;;;3.75;1.33;;;6.00;99.90;;;;;;4992159;28;20113;-82
2022/10/12 07:50:09;;;;;;;3.63;1.27;;;6.10;99.90;;;;;;4993108;28;20666;-83
2022/10/12 07:52:35;;;;;;;3.92;1.85;;;6.40;99.90;;;;;;5016528;28;20056;-82
2022/10/12 07:55:00;;;;;;;2.95;1.45;;;6.50;99.90;;;;;;5017502;28;20033;-87
2022/10/12 07:57:26;;;;;;;4.90;1.40;;;6.60;99.90;;;;;;4999357;28;20183;-82
2022/10/12 07:59:52;;;;;;;4.65;1.33;;;6.60;99.90;;;;;;4997804;28;20159;-82
2022/10/12 08:02:17;;;;;;;4.28;1.50;;;6.70;99.90;;;;;;5000711;28;20413;-79
2022/10/12 08:04:43;;;;;;;5.00;1.45;;;6.80;99.90;;;;;;5017320;28;20563;-79
2022/10/12 08:07:08;;;;;;;3.35;1.35;;;7.00;99.90;;;;;;4991868;28;20044;-82
2022/10/12 08:09:35;;;;;;;2.97;1.50;;;7.10;99.90;;;;;;5016392;28;20056;-85
2022/10/12 08:12:01;;;;;;;5.15;2.50;;;7.20;99.90;;;;;;4991431;28;20053;-80
2022/10/12 08:14:27;;;;;;;3.55;1.42;;;7.30;99.90;;;;;;5016123;28;20041;-87
2022/10/12 08:16:53;;;;;;;3.42;1.58;;;7.30;99.90;;;;;;5008378;28;20032;-83
2022/10/12 08:19:18;;;;;;;4.05;1.75;;;7.40;99.90;;;;;;4991403;28;20139;-80
2022/10/12 08:21:44;;;;;;;3.72;1.65;;;7.30;99.90;;;;;;4992259;28;20456;-81
2022/10/12 08:24:10;;;;;;;5.10;2.00;;;7.30;99.90;;;;;;5017454;28;20456;-78
2022/10/12 08:26:36;;;;;;;4.95;1.92;;;7.40;99.90;;;;;;4976988;28;20057;-83
2022/10/12 08:29:03;;;;;;;4.32;1.35;;;7.40;99.90;;;;;;4997801;28;20480;-81
2022/10/12 08:31:29;;;;;;;3.92;1.60;;;7.50;99.90;;;;;;4991775;28;20395;-81
2022/10/12 08:33:58;;;;;;;4.65;1.95;;;7.50;99.90;;;;;;5005009;28;20465;-82
2022/10/12 08:36:23;;;;;;;4.20;2.03;;;7.50;99.90;;;;;;5002981;28;20389;-84
2022/10/12 08:38:54;;;;;;;6.03;1.98;;;7.70;99.90;;;;;;4994150;28;20033;-85
2022/10/12 08:41:39;;;;;;;;;;;8.10;99.90;;;;;;4990132;28;20437;-89
2022/10/12 08:44:20;;;;;;;3.47;1.10;;;8.40;99.90;;;;;;5002611;28;19964;-87
2022/10/12 08:46:46;;;;;;;4.13;1.70;;;8.70;99.90;;;;;;5010362;28;20093;-89
2022/10/12 08:49:17;;;;;;;4.28;1.50;;;8.80;99.90;;;;;;5024522;28;20037;-85
2022/10/12 08:51:52;;;;;;;5.38;1.88;;;8.90;99.90;;;;;;5002786;28;20030;-89
2022/10/12 08:54:28;;;;;;;6.95;1.65;;;9.20;99.90;;;;;;5002645;28;20148;-84
2022/10/12 08:56:55;;;;;;;4.90;2.00;;;9.50;99.90;;;;;;5002186;28;20107;-86
2022/10/12 08:59:21;;;;;;;5.30;1.92;;;9.80;99.90;;;;;;5002321;28;20088;-82
2022/10/12 09:02:06;;;;;;;5.32;2.42;;;9.90;99.90;;;;;;5003861;28;20043;-81
2022/10/12 09:04:50;;;;;;;6.55;2.63;;;9.90;99.90;;;;;;5023301;28;20083;-85
2022/10/12 09:07:25;;;;;;;7.68;2.90;;;10.00;99.90;;;;;;4996140;28;20029;-78
2022/10/12 09:10:13;;;;;;;6.05;2.35;;;10.30;99.90;;;;;;5013358;28;20128;-87
2022/10/12 09:13:10;;;;;;;5.20;2.30;;;10.80;99.90;;;;;;4995575;28;20050;-78
2022/10/12 09:15:53;;;;;;;6.05;2.78;;;10.80;99.90;;;;;;5002936;28;20144;-79
2022/10/12 09:18:41;;;;;;;4.20;2.28;;;10.60;99.90;;;;;;5025087;28;20150;-83
2022/10/12 09:21:15;;;;;;;4.30;2.55;;;10.40;99.90;;;;;;4996847;28;20040;-78
2022/10/12 09:23:43;;;;;;;6.13;2.20;;;10.50;99.90;;;;;;5001275;28;20045;-79
2022/10/12 09:26:34;;;;;;;10.40;3.83;;;10.70;99.90;;;;;;4990248;28;20059;-82
2022/10/12 09:29:01;;;;;;;8.88;3.53;;;10.80;99.90;;;;;;5019318;28;20041;-81
2022/10/12 09:31:45;;;;;;;5.18;2.03;;;11.10;99.90;;;;;;5020117;28;20043;-80
2022/10/12 09:34:10;;;;;;;6.90;2.90;;;11.40;99.90;;;;;;5018234;28;20170;-80
2022/10/12 09:36:39;;;;;;;7.70;2.78;;;11.30;99.90;;;;;;4999954;28;20516;-82
2022/10/12 09:39:18;;;;;;;6.75;2.97;;;11.50;99.90;;;;;;5018544;28;20048;-81
2022/10/12 09:41:46;;;;;;;8.57;3.70;;;11.50;99.90;;;;;;5010085;28;20707;-81
2022/10/12 09:44:34;;;;;;;7.95;3.60;;;11.60;99.90;;;;;;5009530;28;20057;-80
2022/10/12 09:47:02;;;;;;;10.70;4.88;;;11.70;99.90;;;;;;4979892;28;20029;-77
2022/10/12 09:49:45;;;;;;;10.18;5.68;;;11.70;99.90;;;;;;4972495;28;20345;-82
2022/10/12 09:52:14;;;;;;;9.90;5.40;;;11.80;99.90;;;;;;4981008;28;20037;-78
2022/10/12 09:54:52;;;;;;;6.18;4.45;;;11.90;99.90;;;;;;4978191;28;20032;-86
2022/10/12 09:57:28;;;;;;;7.90;3.75;;;12.00;99.90;;;;;;5001836;28;20029;-78
2022/10/12 09:59:54;;;;;;;7.70;4.28;;;12.40;99.90;;;;;;5019735;28;20041;-85
2022/10/12 10:02:25;;;;;;;8.98;5.18;;;12.30;99.90;;;;;;4987441;28;20501;-86
2022/10/12 10:04:52;;;;;;;10.35;5.03;;;11.80;99.90;;;;;;4958297;28;20061;-83
2022/10/12 10:07:34;;;;;;;9.60;4.78;;;11.60;99.90;;;;;;4976797;28;20033;-78
2022/10/12 10:10:14;;;;;;;8.60;4.60;;;11.30;99.90;;;;;;4997093;28;20048;-81
2022/10/12 10:12:43;;;;;;;;;;;11.50;99.90;;;;;;4983139;28;20150;-81
2022/10/12 10:15:26;;;;;;;6.00;3.28;;;11.90;99.90;;;;;;5009569;28;19917;-84
2022/10/12 10:18:23;;;;;;;9.65;4.88;;;12.30;99.90;;;;;;4994842;28;20036;-80
2022/10/12 10:20:53;;;;;;;7.47;4.20;;;12.60;99.90;;;;;;5001634;28;20049;-81
2022/10/12 10:23:43;;;;;;;7.20;4.70;;;12.50;99.90;;;;;;5019472;28;20129;-84
2022/10/12 10:26:12;;;;;;;7.45;4.53;;;12.80;99.90;;;;;;4987133;28;20061;-81
2022/10/12 10:28:40;;;;;;;10.23;5.18;;;12.80;99.90;;;;;;5021696;28;20036;-82
2022/10/12 10:31:12;;;;;;;12.57;7.22;;;13.00;99.90;;;;;;5021112;28;20396;-86
2022/10/12 10:33:39;;;;;;;9.60;6.25;;;12.90;99.90;;;;;;5019199;28;20052;-83
2022/10/12 10:36:25;;;;;;;7.47;5.35;;;12.90;99.90;;;;;;5019603;28;20033;-82
2022/10/12 10:38:59;;;;;;;8.20;5.15;;;13.20;99.90;;;;;;4994120;28;20045;-83
2022/10/12 10:41:46;;;;;;;9.80;6.15;;;13.20;99.90;;;;;;5002444;28;20045;-78
2022/10/12 10:44:30;;;;;;;9.18;5.63;;;13.30;99.90;;;;;;4993770;28;21669;-84
2022/10/12 10:47:06;;;;;;;7.32;4.60;;;13.50;99.90;;;;;;5021288;28;20025;-79
2022/10/12 10:49:37;;;;;;;5.95;4.45;;;13.50;99.90;;;;;;5003106;28;20103;-83
2022/10/12 10:52:04;;;;;;;6.68;4.82;;;13.70;99.90;;;;;;4993401;28;20048;-82
2022/10/12 10:54:33;;;;;;;10.40;6.80;;;13.90;99.90;;;;;;5017975;28;20055;-79
2022/10/12 10:57:20;;;;;;;8.63;5.80;;;13.90;99.90;;;;;;5001299;28;20036;-79
2022/10/12 10:59:56;;;;;;;7.25;4.30;;;14.10;99.90;;;;;;4995501;28;20183;-79
2022/10/12 11:02:40;;;;;;;7.82;4.03;;;14.30;99.90;;;;;;5018957;28;20472;-83
2022/10/12 11:05:16;;;;;;;7.28;4.68;;;14.20;99.90;;;;;;4981614;28;20063;-84
2022/10/12 11:08:00;;;;;;;7.43;4.03;;;14.10;99.90;;;;;;4978359;28;20863;-78
2022/10/12 11:10:33;;;;;;;7.20;3.75;;;13.70;99.90;;;;;;4962623;28;20408;-78
2022/10/12 11:13:33;;;;;;;7.47;3.17;;;13.90;99.90;;;;;;4953825;28;20054;-78
2022/10/12 11:16:32;;;;;;;7.38;2.65;;;14.00;99.90;;;;;;4978455;28;20115;-79
2022/10/12 11:19:05;;;;;;;3.70;1.70;;;14.00;99.90;;;;;;4998775;28;20261;-79
2022/10/12 11:21:51;;;;;;;5.57;2.67;;;14.10;99.90;;;;;;4979542;28;20033;-76
2022/10/12 11:24:34;;;;;;;6.22;3.22;;;13.80;99.90;;;;;;4961969;28;20046;-78
2022/10/12 11:27:22;;;;;;;5.90;2.63;;;13.90;99.90;;;;;;4992958;28;20044;-79
2022/10/12 11:29:54;;;;;;;6.57;2.83;;;14.00;99.90;;;;;;4986610;28;20072;-83
2022/10/12 11:32:31;;;;;;;7.15;2.20;;;14.00;99.90;;;;;;4991183;28;20157;-80
2022/10/12 11:35:01;;;;;;;6.35;1.92;;;14.30;99.90;;;;;;4965077;28;20469;-82
2022/10/12 11:37:52;;;;;;;6.90;3.58;;;14.60;99.90;;;;;;4979997;28;20033;-81
2022/10/12 11:40:58;;;;;;;6.43;2.65;;;14.30;99.90;;;;;;4999834;28;21274;-84
2022/10/12 11:43:30;;;;;;;6.65;2.60;;;14.70;99.90;;;;;;4984886;28;20048;-82
2022/10/12 11:46:01;;;;;;;6.18;3.08;;;15.00;99.90;;;;;;4997443;28;20026;-84
2022/10/12 11:48:55;;;;;;;10.98;4.65;;;14.90;99.90;;;;;;5001716;28;20041;-82
2022/10/12 11:51:21;;;;;;;5.72;2.90;;;14.80;99.90;;;;;;4983827;28;20060;-83
2022/10/12 11:54:00;;;;;;;8.20;3.33;;;15.10;99.90;;;;;;4990147;28;20827;-78
2022/10/12 11:56:36;;;;;;;7.20;3.30;;;15.10;99.90;;;;;;4979569;28;20030;-83
2022/10/12 11:59:26;;;;;;;9.85;5.57;;;15.00;99.90;;;;;;4997444;28;20067;-78
2022/10/12 12:02:17;;;;;;;4.13;2.45;;;14.90;99.90;;;;;;4975642;28;20044;-79
2022/10/12 12:04:46;;;;;;;4.78;2.88;;;15.10;99.90;;;;;;4992365;28;20053;-80
2022/10/12 12:07:42;;;;;;;6.65;3.03;;;15.30;99.90;;;;;;4974051;28;20169;-80
2022/10/12 12:10:27;;;;;;;4.40;1.67;;;15.50;99.90;;;;;;4983634;28;20077;-79
2022/10/12 12:13:13;;;;;;;6.57;2.13;;;15.40;99.90;;;;;;4985692;28;20101;-80
2022/10/12 12:15:40;;;;;;;6.30;1.63;;;15.00;99.90;;;;;;4993031;28;20034;-78
2022/10/12 12:18:28;;;;;;;6.65;3.30;;;14.90;99.90;;;;;;4998884;28;20032;-77
2022/10/12 12:21:05;;;;;;;5.07;1.67;;;14.90;99.90;;;;;;4996450;28;20047;-78
2022/10/12 12:23:49;;;;;;;3.67;1.80;;;14.90;99.90;;;;;;4998970;28;20487;-77
2022/10/12 12:26:17;;;;;;;6.65;1.73;;;14.90;99.90;;;;;;4994147;28;20117;-86
2022/10/12 12:28:45;;;;;;;4.95;1.60;;;14.90;99.90;;;;;;4980391;28;20048;-77
2022/10/12 12:31:21;;;;;;;3.33;1.13;;;14.80;99.90;;;;;;4972782;28;20037;-79
2022/10/12 12:33:50;;;;;;;5.72;1.33;;;14.60;99.90;;;;;;4996147;28;20034;-80
2022/10/12 12:36:36;;;;;;;3.70;1.00;;;14.80;99.90;;;;;;4972285;28;20232;-83
2022/10/12 12:39:05;;;;;;;3.30;0.75;;;14.80;99.90;;;;;;4997482;28;20033;-78
2022/10/12 12:41:51;;;;;;;4.78;1.00;;;15.10;99.90;;;;;;4989730;28;20077;-81
2022/10/12 12:44:32;;;;;;;2.70;0.60;;;15.40;99.90;;;;;;4977960;28;20056;-80
2022/10/12 12:47:01;;;;;;;5.10;0.80;;;15.40;99.90;;;;;;4998191;28;20040;-82
2022/10/12 12:49:40;;;;;;;4.47;0.70;;;15.40;99.90;;;;;;4996606;28;20040;-82
2022/10/12 12:52:17;;;;;;;5.30;0.80;;;15.50;99.90;;;;;;4995774;28;20489;-80
2022/10/12 12:55:09;;;;;;;4.07;0.63;;;15.40;99.90;;;;;;4993612;28;20099;-83
2022/10/12 12:57:46;;;;;;;6.03;1.13;;;15.40;99.90;;;;;;4998027;28;20033;-79
2022/10/12 13:00:22;;;;;;;3.22;0.60;;;15.10;99.90;;;;;;4997528;28;20471;-82
2022/10/12 13:03:34;;;;;;;2.17;0.50;;;15.10;99.90;;;;;;4995209;28;20037;-78
2022/10/12 13:06:37;;;;;;;4.18;0.55;;;15.00;99.90;;;;;;4997575;28;20058;-81
2022/10/12 13:09:29;;;;;;;2.38;0.50;;;15.10;99.90;;;;;;4979493;28;20045;-78
2022/10/12 13:12:00;;;;;;;3.13;0.50;;;14.90;99.90;;;;;;4980270;28;20046;-81
2022/10/12 13:15:17;;;;;;;3.95;0.50;;;14.90;99.90;;;;;;4986913;28;20507;-78
2022/10/12 13:18:21;;;;;;;1.45;0.50;;;14.80;99.90;;;;;;4981364;28;20055;-86
2022/10/12 13:20:48;;;;;;;2.50;0.47;;;14.80;99.90;;;;;;4995783;28;20049;-79